createdAt,value
2019-03-15T00:00:03.955Z,22.40
2019-03-15T00:02:34.437Z,22.40
2019-03-15T00:05:05.136Z,22.40
2019-03-15T00:07:35.500Z,22.40
2019-03-15T00:10:08.706Z,22.40
2019-03-15T00:12:39.343Z,22.40
2019-03-15T00:15:10.173Z,22.40
2019-03-15T00:17:40.699Z,22.40
2019-03-15T00:20:11.058Z,22.40
2019-03-15T00:22:41.516Z,22.40
2019-03-15T00:25:13.157Z,22.40
2019-03-15T00:27:43.759Z,22.40
2019-03-15T00:30:14.186Z,22.40
2019-03-15T00:32:44.603Z,22.40
2019-03-15T00:35:15.347Z,22.30
2019-03-15T00:37:45.871Z,22.30
2019-03-15T00:40:16.858Z,22.30
2019-03-15T00:42:47.336Z,22.30
2019-03-15T00:45:17.683Z,22.30
2019-03-15T00:47:48.123Z,22.30
2019-03-15T00:50:18.581Z,22.30
2019-03-15T00:52:48.945Z,22.30
2019-03-15T00:55:19.818Z,22.30
2019-03-15T00:57:50.381Z,22.30
2019-03-15T01:00:20.931Z,22.30
2019-03-15T01:02:51.400Z,22.30
2019-03-15T01:05:21.809Z,22.30
2019-03-15T01:07:52.389Z,22.30
2019-03-15T01:10:22.872Z,22.30
2019-03-15T01:12:53.363Z,22.30
2019-03-15T01:15:23.802Z,22.30
2019-03-15T01:17:54.233Z,22.30
2019-03-15T01:20:24.785Z,22.30
2019-03-15T01:22:55.170Z,22.30
2019-03-15T01:25:25.692Z,22.30
2019-03-15T01:27:56.160Z,22.30
2019-03-15T01:30:26.660Z,22.30
2019-03-15T01:32:57.191Z,22.30
2019-03-15T01:35:27.642Z,22.30
2019-03-15T01:37:57.997Z,22.30
2019-03-15T01:40:28.453Z,22.30
2019-03-15T01:42:58.783Z,22.30
2019-03-15T01:45:29.414Z,22.30
2019-03-15T01:47:59.948Z,22.30
2019-03-15T01:50:30.419Z,22.30
2019-03-15T01:53:00.965Z,22.30
2019-03-15T01:55:31.469Z,22.30
2019-03-15T01:58:01.874Z,22.20
2019-03-15T02:00:32.312Z,22.30
2019-03-15T02:03:02.956Z,22.30
2019-03-15T02:05:33.445Z,22.30
2019-03-15T02:08:03.976Z,22.20
2019-03-15T02:10:34.391Z,22.20
2019-03-15T02:13:04.852Z,22.20
2019-03-15T02:15:35.278Z,22.20
2019-03-15T02:18:05.820Z,22.20
2019-03-15T02:20:36.331Z,22.20
2019-03-15T02:23:06.891Z,22.20
2019-03-15T02:25:37.432Z,22.20
2019-03-15T02:28:07.897Z,22.20
2019-03-15T02:30:38.367Z,22.20
2019-03-15T02:33:08.779Z,22.30
2019-03-15T02:35:39.241Z,22.30
2019-03-15T02:38:09.749Z,22.30
2019-03-15T02:40:40.255Z,22.30
2019-03-15T02:43:10.706Z,22.30
2019-03-15T02:45:41.235Z,22.30
2019-03-15T02:48:11.917Z,22.30
2019-03-15T02:50:43.454Z,22.20
2019-03-15T02:53:13.889Z,22.20
2019-03-15T02:55:44.443Z,22.20
2019-03-15T02:58:14.952Z,22.20
2019-03-15T03:00:45.665Z,22.20
2019-03-15T03:03:16.278Z,22.20
2019-03-15T03:05:46.885Z,22.20
2019-03-15T03:08:17.337Z,22.20
2019-03-15T03:10:48.023Z,22.20
2019-03-15T03:13:19.663Z,22.20
2019-03-15T03:15:51.315Z,22.20
2019-03-15T03:18:22.628Z,22.20
2019-03-15T03:20:53.281Z,22.20
2019-03-15T03:23:24.015Z,22.20
2019-03-15T03:25:54.707Z,22.20
2019-03-15T03:28:25.248Z,22.20
2019-03-15T03:30:55.950Z,22.20
2019-03-15T03:33:26.618Z,22.20
2019-03-15T03:35:57.264Z,22.20
2019-03-15T03:38:27.904Z,22.20
2019-03-15T03:40:58.792Z,22.20
2019-03-15T03:43:29.373Z,22.20
2019-03-15T03:46:00.014Z,22.20
2019-03-15T03:48:30.813Z,22.20
2019-03-15T03:51:01.524Z,22.20
2019-03-15T03:53:32.230Z,22.20
2019-03-15T03:56:02.838Z,22.20
2019-03-15T03:58:33.354Z,22.20
2019-03-15T04:01:07.325Z,22.20
2019-03-15T04:03:36.499Z,22.20
2019-03-15T04:06:07.117Z,22.10
2019-03-15T04:08:37.701Z,22.20
2019-03-15T04:11:08.176Z,22.10
2019-03-15T04:13:38.919Z,22.10
2019-03-15T04:16:09.620Z,22.10
2019-03-15T04:18:40.151Z,22.10
2019-03-15T04:21:10.684Z,22.20
2019-03-15T04:23:41.241Z,22.20
2019-03-15T04:26:11.871Z,22.10
2019-03-15T04:28:42.519Z,22.10
2019-03-15T04:31:13.304Z,22.10
2019-03-15T04:33:43.674Z,22.10
2019-03-15T04:36:14.467Z,22.10
2019-03-15T04:38:45.052Z,22.10
2019-03-15T04:41:15.654Z,22.10
2019-03-15T04:43:46.154Z,22.10
2019-03-15T04:46:16.788Z,22.10
2019-03-15T04:48:47.376Z,22.10
2019-03-15T04:51:17.909Z,22.10
2019-03-15T04:53:48.742Z,22.10
2019-03-15T04:56:19.541Z,22.10
2019-03-15T04:58:50.072Z,22.10
2019-03-15T05:01:20.693Z,22.10
2019-03-15T05:03:51.228Z,22.10
2019-03-15T05:06:21.872Z,22.10
2019-03-15T05:08:52.478Z,22.10
2019-03-15T05:11:23.088Z,22.10
2019-03-15T05:13:53.600Z,22.10
2019-03-15T05:16:24.313Z,22.10
2019-03-15T05:18:55.037Z,22.10
2019-03-15T05:21:25.735Z,22.10
2019-03-15T05:23:56.507Z,22.10
2019-03-15T05:26:27.062Z,22.10
2019-03-15T05:28:57.731Z,22.10
2019-03-15T05:31:28.282Z,22.10
2019-03-15T05:33:58.775Z,22.10
2019-03-15T05:36:29.306Z,22.10
2019-03-15T05:38:59.799Z,22.10
2019-03-15T05:41:30.870Z,22.10
2019-03-15T05:44:01.582Z,22.10
2019-03-15T05:46:32.846Z,22.10
2019-03-15T05:49:04.392Z,22.00
2019-03-15T05:51:35.694Z,22.00
2019-03-15T05:54:07.366Z,22.00
2019-03-15T05:56:39.849Z,22.00
2019-03-15T05:59:11.420Z,22.00
2019-03-15T06:01:42.460Z,22.00
2019-03-15T06:04:13.378Z,22.00
2019-03-15T06:06:43.953Z,22.00
2019-03-15T06:09:14.666Z,22.00
2019-03-15T06:11:45.280Z,22.00
2019-03-15T06:14:16.099Z,22.00
2019-03-15T06:16:47.003Z,22.00
2019-03-15T06:19:17.679Z,22.00
2019-03-15T06:21:48.324Z,22.00
2019-03-15T06:24:18.952Z,22.00
2019-03-15T06:26:49.903Z,22.00
2019-03-15T06:29:21.080Z,22.00
2019-03-15T06:31:52.619Z,22.00
2019-03-15T06:34:23.453Z,22.00
2019-03-15T06:36:55.418Z,22.00
2019-03-15T06:39:26.503Z,22.00
2019-03-15T06:41:57.255Z,22.00
2019-03-15T06:44:28.265Z,22.10
2019-03-15T06:46:59.019Z,22.10
2019-03-15T06:49:29.704Z,22.10
2019-03-15T06:52:00.595Z,22.10
2019-03-15T06:54:31.622Z,22.30
2019-03-15T06:57:02.199Z,22.30
2019-03-15T06:59:32.934Z,22.30
2019-03-15T07:02:03.660Z,22.30
2019-03-15T07:04:34.931Z,22.30
2019-03-15T07:07:05.441Z,22.20
2019-03-15T07:09:36.368Z,22.20
2019-03-15T07:12:09.675Z,22.20
2019-03-15T07:14:39.260Z,22.10
2019-03-15T07:17:10.523Z,22.10
2019-03-15T07:19:42.097Z,22.00
2019-03-15T07:22:12.945Z,22.00
2019-03-15T07:24:44.044Z,22.00
2019-03-15T07:27:15.107Z,22.00
2019-03-15T07:29:45.901Z,22.00
2019-03-15T07:32:16.497Z,22.00
2019-03-15T07:34:47.397Z,22.00
2019-03-15T07:37:18.028Z,21.90
2019-03-15T07:39:48.483Z,21.90
2019-03-15T07:42:19.049Z,21.90
2019-03-15T07:44:49.480Z,21.90
2019-03-15T07:47:20.138Z,22.00
2019-03-15T07:49:50.655Z,21.90
2019-03-15T07:52:21.125Z,22.00
2019-03-15T07:54:51.995Z,22.00
2019-03-15T07:57:22.610Z,22.10
2019-03-15T07:59:53.300Z,22.10
2019-03-15T08:02:23.969Z,22.10
2019-03-15T08:04:54.883Z,22.10
2019-03-15T08:07:35.731Z,22.10
2019-03-15T08:09:58.274Z,22.10
2019-03-15T08:12:29.253Z,22.10
2019-03-15T08:14:59.913Z,22.10
2019-03-15T08:17:30.714Z,22.10
2019-03-15T08:20:01.338Z,22.00
2019-03-15T08:22:32.044Z,22.00
2019-03-15T08:25:02.820Z,22.00
2019-03-15T08:27:33.427Z,22.00
2019-03-15T08:30:03.821Z,22.00
2019-03-15T08:32:34.193Z,22.00
2019-03-15T08:35:04.993Z,22.00
2019-03-15T08:37:35.413Z,22.00
2019-03-15T08:40:06.727Z,22.00
2019-03-15T08:42:37.506Z,22.10
2019-03-15T08:45:11.184Z,22.10
2019-03-15T08:47:41.915Z,22.10
2019-03-15T08:50:15.408Z,22.10
2019-03-15T08:52:46.429Z,22.10
2019-03-15T08:55:17.054Z,22.10
2019-03-15T08:57:48.057Z,22.10
2019-03-15T09:00:18.616Z,22.10
2019-03-15T09:02:49.483Z,22.10
2019-03-15T09:05:20.021Z,22.10
2019-03-15T09:07:50.692Z,22.10
2019-03-15T09:10:23.651Z,22.10
2019-03-15T09:12:53.746Z,22.10
2019-03-15T09:15:24.461Z,22.10
2019-03-15T09:17:54.967Z,22.10
2019-03-15T09:20:30.339Z,22.10
2019-03-15T09:22:58.175Z,22.10
2019-03-15T09:25:29.157Z,22.10
2019-03-15T09:27:59.767Z,22.10
2019-03-15T09:30:30.734Z,22.10
2019-03-15T09:33:03.158Z,22.10
2019-03-15T09:35:34.172Z,22.10
2019-03-15T09:38:04.685Z,22.10
2019-03-15T09:40:35.339Z,22.10
2019-03-15T09:43:06.255Z,22.10
2019-03-15T09:45:37.187Z,22.00
2019-03-15T09:48:07.821Z,22.10
2019-03-15T09:50:50.565Z,22.10
2019-03-15T09:53:11.051Z,22.10
2019-03-15T09:55:41.807Z,22.10
2019-03-15T09:58:12.561Z,22.10
2019-03-15T10:00:43.042Z,22.10
2019-03-15T10:03:21.999Z,22.00
2019-03-15T10:05:45.827Z,22.00
2019-03-15T10:08:16.337Z,22.00
2019-03-15T10:10:49.234Z,22.00
2019-03-15T10:13:19.246Z,22.00
2019-03-15T10:15:49.923Z,22.10
2019-03-15T10:18:20.670Z,22.10
2019-03-15T10:20:51.354Z,22.10
2019-03-15T10:23:22.088Z,22.10
2019-03-15T10:25:52.723Z,22.10
2019-03-15T10:28:23.365Z,22.10
2019-03-15T10:30:54.085Z,22.10
2019-03-15T10:33:25.011Z,22.10
2019-03-15T10:35:55.678Z,22.10
2019-03-15T10:38:26.183Z,22.10
2019-03-15T10:40:56.860Z,22.10
2019-03-15T10:43:27.441Z,22.10
2019-03-15T10:45:58.286Z,22.10
2019-03-15T10:48:28.927Z,22.10
2019-03-15T10:50:59.639Z,22.10
2019-03-15T10:53:30.233Z,22.10
2019-03-15T10:56:01.072Z,22.10
2019-03-15T10:58:31.549Z,22.10
2019-03-15T11:01:02.195Z,22.00
2019-03-15T11:03:32.773Z,22.00
2019-03-15T11:06:03.539Z,22.00
2019-03-15T11:08:34.252Z,22.00
2019-03-15T11:11:04.902Z,22.00
2019-03-15T11:13:36.141Z,22.00
2019-03-15T11:16:06.987Z,22.00
2019-03-15T11:18:37.915Z,22.00
2019-03-15T11:21:08.531Z,22.00
2019-03-15T11:23:39.299Z,22.10
2019-03-15T11:26:13.893Z,22.10
2019-03-15T11:28:42.559Z,22.10
2019-03-15T11:31:13.265Z,22.10
2019-03-15T11:33:47.069Z,22.10
2019-03-15T11:36:15.947Z,22.10
2019-03-15T11:38:46.622Z,22.10
2019-03-15T11:41:17.179Z,22.10
2019-03-15T11:43:47.862Z,22.10
2019-03-15T11:46:18.682Z,22.00
2019-03-15T11:48:49.301Z,22.10
2019-03-15T11:51:19.912Z,22.10
2019-03-15T11:53:50.609Z,22.10
2019-03-15T11:56:26.919Z,22.10
2019-03-15T11:58:53.385Z,22.10
2019-03-15T12:01:24.038Z,22.10
2019-03-15T12:03:54.657Z,22.10
2019-03-15T12:06:25.248Z,22.10
2019-03-15T12:08:56.056Z,22.10
2019-03-15T12:11:26.551Z,22.10
2019-03-15T12:13:57.301Z,22.10
2019-03-15T12:16:27.837Z,22.10
2019-03-15T12:18:58.557Z,22.10
2019-03-15T12:21:29.124Z,22.10
2019-03-15T12:23:59.810Z,22.10
2019-03-15T12:26:39.780Z,22.10
2019-03-15T12:29:02.755Z,22.10
2019-03-15T12:31:33.841Z,22.10
2019-03-15T12:34:04.602Z,22.10
2019-03-15T12:36:37.008Z,22.10
2019-03-15T12:39:08.790Z,22.10
2019-03-15T12:41:39.786Z,22.10
2019-03-15T12:44:10.764Z,22.10
2019-03-15T12:46:41.789Z,22.10
2019-03-15T12:49:12.375Z,22.10
2019-03-15T12:51:43.296Z,22.10
2019-03-15T12:54:13.951Z,22.10
2019-03-15T12:56:53.702Z,22.20
2019-03-15T12:59:23.346Z,22.20
2019-03-15T13:01:53.886Z,22.20
2019-03-15T13:04:24.679Z,22.20
2019-03-15T13:06:55.823Z,22.20
2019-03-15T13:09:26.450Z,22.20
2019-03-15T13:11:57.771Z,22.10
2019-03-15T13:14:28.499Z,22.20
2019-03-15T13:16:59.151Z,22.20
2019-03-15T13:19:29.750Z,22.20
2019-03-15T13:22:00.344Z,22.20
2019-03-15T13:24:31.111Z,22.20
2019-03-15T13:27:07.354Z,22.20
2019-03-15T13:29:34.020Z,22.20
2019-03-15T13:32:05.504Z,22.20
2019-03-15T13:34:38.506Z,22.20
2019-03-15T13:37:09.034Z,22.20
2019-03-15T13:39:39.516Z,22.20
2019-03-15T13:42:11.949Z,22.10
2019-03-15T13:44:42.489Z,22.10
2019-03-15T13:47:12.885Z,22.10
2019-03-15T13:49:43.860Z,22.10
2019-03-15T13:52:14.656Z,22.10
2019-03-15T13:54:45.458Z,22.10
2019-03-15T13:57:21.105Z,22.10
2019-03-15T13:59:48.997Z,22.10
2019-03-15T14:02:19.903Z,22.10
2019-03-15T14:04:50.855Z,22.10
2019-03-15T14:07:21.613Z,22.10
2019-03-15T14:09:52.125Z,22.10
2019-03-15T14:12:22.750Z,22.10
2019-03-15T14:14:53.301Z,22.10
2019-03-15T14:17:24.174Z,22.10
2019-03-15T14:19:54.569Z,22.10
2019-03-15T14:22:25.210Z,22.10
2019-03-15T14:24:55.847Z,22.10
2019-03-15T14:27:37.051Z,22.10
2019-03-15T14:29:58.682Z,22.10
2019-03-15T14:32:29.485Z,22.00
2019-03-15T14:35:00.008Z,22.10
2019-03-15T14:37:31.505Z,22.10
2019-03-15T14:40:02.203Z,22.10
2019-03-15T14:42:33.161Z,22.10
2019-03-15T14:45:04.193Z,22.10
2019-03-15T14:47:34.844Z,22.10
2019-03-15T14:50:06.636Z,22.10
2019-03-15T14:52:37.416Z,22.10
2019-03-15T14:55:07.954Z,22.10
2019-03-15T14:57:51.159Z,22.10
2019-03-15T15:00:12.580Z,22.10
2019-03-15T15:02:43.203Z,22.10
2019-03-15T15:05:13.968Z,22.10
2019-03-15T15:07:44.666Z,22.10
2019-03-15T15:10:15.402Z,22.10
2019-03-15T15:12:46.181Z,22.10
2019-03-15T15:15:17.094Z,22.20
2019-03-15T15:17:47.666Z,22.30
2019-03-15T15:20:18.349Z,22.30
2019-03-15T15:22:48.856Z,22.40
2019-03-15T15:25:19.354Z,22.50
2019-03-15T15:27:50.146Z,22.60
2019-03-15T15:30:20.866Z,22.80
2019-03-15T15:32:51.563Z,22.90
2019-03-15T15:35:22.124Z,22.90
2019-03-15T15:37:52.864Z,22.90
2019-03-15T15:40:23.502Z,22.90
2019-03-15T15:42:54.389Z,22.90
2019-03-15T15:45:25.083Z,23.00
2019-03-15T15:47:55.790Z,23.10
2019-03-15T15:50:26.532Z,23.20
2019-03-15T15:52:57.252Z,23.40
2019-03-15T15:55:27.922Z,23.40
2019-03-15T15:57:58.993Z,23.40
2019-03-15T16:00:29.954Z,23.40
2019-03-15T16:03:00.672Z,23.40
2019-03-15T16:05:31.413Z,23.30
2019-03-15T16:08:02.232Z,23.40
2019-03-15T16:10:33.045Z,23.50
2019-03-15T16:13:16.589Z,23.60
2019-03-15T16:15:36.079Z,23.70
2019-03-15T16:18:06.792Z,23.70
2019-03-15T16:20:37.607Z,23.70
2019-03-15T16:23:08.234Z,23.80
2019-03-15T16:25:39.401Z,23.70
2019-03-15T16:28:10.124Z,23.70
2019-03-15T16:30:40.868Z,23.70
2019-03-15T16:33:11.685Z,23.60
2019-03-15T16:35:42.315Z,23.60
2019-03-15T16:38:13.325Z,23.50
2019-03-15T16:40:44.156Z,23.40
2019-03-15T16:43:14.966Z,23.40
2019-03-15T16:45:45.740Z,23.30
2019-03-15T16:48:16.637Z,23.30
2019-03-15T16:50:47.427Z,23.30
2019-03-15T16:53:18.303Z,23.20
2019-03-15T16:55:49.654Z,23.20
2019-03-15T16:58:21.053Z,23.10
2019-03-15T17:00:52.161Z,23.10
2019-03-15T17:03:22.955Z,23.00
2019-03-15T17:05:53.890Z,23.00
2019-03-15T17:08:28.417Z,23.00
2019-03-15T17:11:00.056Z,22.90
2019-03-15T17:13:31.193Z,22.90
2019-03-15T17:16:02.538Z,22.90
2019-03-15T17:18:33.542Z,22.90
2019-03-15T17:21:04.909Z,22.90
2019-03-15T17:23:35.695Z,22.90
2019-03-15T17:26:06.666Z,22.90
2019-03-15T17:28:37.403Z,22.90
2019-03-15T17:31:10.195Z,22.80
2019-03-15T17:33:40.645Z,22.80
2019-03-15T17:36:11.369Z,22.80
2019-03-15T17:38:42.186Z,22.80
2019-03-15T17:41:13.111Z,22.90
2019-03-15T17:43:44.038Z,22.90
2019-03-15T17:46:15.176Z,23.00
2019-03-15T17:48:45.930Z,23.00
2019-03-15T17:51:16.869Z,22.90
2019-03-15T17:53:48.016Z,22.90
2019-03-15T17:56:18.615Z,22.80
2019-03-15T17:58:49.399Z,22.80
2019-03-15T18:01:19.948Z,22.80
2019-03-15T18:03:50.762Z,22.80
2019-03-15T18:06:21.607Z,22.70
2019-03-15T18:08:52.449Z,22.70
2019-03-15T18:11:23.997Z,22.70
2019-03-15T18:13:54.780Z,22.70
2019-03-15T18:16:25.981Z,22.70
2019-03-15T18:18:58.738Z,22.70
2019-03-15T18:21:30.963Z,22.60
2019-03-15T18:24:02.101Z,22.60
2019-03-15T18:26:33.755Z,22.60
2019-03-15T18:29:07.184Z,22.60
2019-03-15T18:31:38.265Z,22.60
2019-03-15T18:34:09.472Z,22.60
2019-03-15T18:36:42.904Z,22.60
2019-03-15T18:39:12.849Z,22.60
2019-03-15T18:41:43.761Z,22.60
2019-03-15T18:44:14.842Z,22.60
2019-03-15T18:46:45.734Z,22.50
2019-03-15T18:49:18.709Z,22.60
2019-03-15T18:51:49.719Z,22.60
2019-03-15T18:54:20.816Z,22.60
2019-03-15T18:56:51.781Z,22.60
2019-03-15T18:59:23.033Z,22.50
2019-03-15T19:01:54.282Z,22.50
2019-03-15T19:04:25.283Z,22.60
2019-03-15T19:06:56.230Z,22.60
2019-03-15T19:09:27.313Z,22.60
2019-03-15T19:11:59.651Z,22.60
2019-03-15T19:14:30.567Z,22.60
2019-03-15T19:17:01.250Z,22.60
2019-03-15T19:19:32.138Z,22.60
2019-03-15T19:22:02.837Z,22.60
2019-03-15T19:24:33.682Z,22.70
2019-03-15T19:27:04.310Z,22.70
2019-03-15T19:29:35.944Z,22.70
2019-03-15T19:32:06.999Z,22.70
2019-03-15T19:34:37.644Z,22.80
2019-03-15T19:37:08.303Z,22.90
2019-03-15T19:39:38.985Z,23.00
2019-03-15T19:42:09.653Z,23.20
2019-03-15T19:44:40.072Z,23.30
2019-03-15T19:47:10.890Z,23.30
2019-03-15T19:49:41.577Z,23.40
2019-03-15T19:52:12.206Z,23.50
2019-03-15T19:54:42.733Z,23.60
2019-03-15T19:57:13.649Z,23.60
2019-03-15T19:59:44.575Z,23.70
2019-03-15T20:02:15.363Z,23.80
2019-03-15T20:04:46.112Z,23.80
2019-03-15T20:07:17.028Z,23.70
2019-03-15T20:09:47.915Z,23.70
2019-03-15T20:12:19.329Z,23.70
2019-03-15T20:14:50.239Z,23.80
2019-03-15T20:17:20.968Z,23.80
2019-03-15T20:19:52.353Z,23.80
2019-03-15T20:22:23.566Z,23.70
2019-03-15T20:24:54.708Z,23.60
2019-03-15T20:27:25.362Z,23.60
2019-03-15T20:29:56.303Z,23.60
2019-03-15T20:32:26.922Z,23.50
2019-03-15T20:34:57.637Z,23.40
2019-03-15T20:37:28.762Z,23.30
2019-03-15T20:40:00.114Z,23.30
2019-03-15T20:42:30.966Z,23.20
2019-03-15T20:45:01.657Z,23.20
2019-03-15T20:47:32.379Z,23.20
2019-03-15T20:50:03.341Z,23.20
2019-03-15T20:52:34.103Z,23.20
2019-03-15T20:55:05.024Z,23.10
2019-03-15T20:57:35.640Z,23.10
2019-03-15T21:00:07.232Z,23.10
2019-03-15T21:02:37.859Z,23.10
2019-03-15T21:05:08.953Z,23.00
2019-03-15T21:07:39.674Z,23.00
2019-03-15T21:10:10.915Z,23.00
2019-03-15T21:12:41.557Z,23.00
2019-03-15T21:15:12.572Z,23.00
2019-03-15T21:17:43.454Z,23.00
2019-03-15T21:20:14.450Z,22.90
2019-03-15T21:22:45.185Z,22.90
2019-03-15T21:25:15.962Z,22.90
2019-03-15T21:27:53.831Z,22.90
2019-03-15T21:30:19.678Z,22.90
2019-03-15T21:32:50.423Z,22.80
2019-03-15T21:35:21.304Z,22.90
2019-03-15T21:37:52.049Z,22.90
2019-03-15T21:40:22.887Z,22.80
2019-03-15T21:42:53.574Z,22.90
2019-03-15T21:45:24.410Z,22.90
2019-03-15T21:47:55.528Z,22.90
2019-03-15T21:50:26.049Z,22.80
2019-03-15T21:52:57.016Z,22.80
2019-03-15T21:55:27.743Z,22.80
2019-03-15T21:57:58.260Z,22.80
2019-03-15T22:00:29.523Z,22.80
2019-03-15T22:03:00.423Z,22.80
2019-03-15T22:05:31.101Z,22.80
2019-03-15T22:08:01.790Z,22.80
2019-03-15T22:10:32.628Z,22.80
2019-03-15T22:13:03.123Z,22.70
2019-03-15T22:15:33.885Z,22.70
2019-03-15T22:18:04.615Z,22.70
2019-03-15T22:20:35.153Z,22.70
2019-03-15T22:23:05.873Z,22.70
2019-03-15T22:25:36.517Z,22.70
2019-03-15T22:28:06.978Z,22.60
2019-03-15T22:30:38.636Z,22.60
2019-03-15T22:33:09.299Z,22.60
2019-03-15T22:35:40.274Z,22.60
2019-03-15T22:38:10.699Z,22.60
2019-03-15T22:40:41.187Z,22.60
2019-03-15T22:43:11.717Z,22.60
2019-03-15T22:45:42.256Z,22.50
2019-03-15T22:48:12.905Z,22.50
2019-03-15T22:50:43.476Z,22.60
2019-03-15T22:53:14.180Z,22.60
2019-03-15T22:55:45.002Z,22.60
2019-03-15T22:58:15.662Z,22.60
2019-03-15T23:00:46.674Z,22.60
2019-03-15T23:03:20.785Z,22.60
2019-03-15T23:05:51.791Z,22.50
2019-03-15T23:08:24.662Z,22.50
2019-03-15T23:10:55.739Z,22.50
2019-03-15T23:13:28.464Z,22.50
2019-03-15T23:15:59.212Z,22.50
2019-03-15T23:18:29.913Z,22.50
2019-03-15T23:21:00.551Z,22.50
2019-03-15T23:23:31.220Z,22.50
2019-03-15T23:26:02.251Z,22.50
2019-03-15T23:28:33.015Z,22.50
2019-03-15T23:31:03.665Z,22.50
2019-03-15T23:33:34.308Z,22.40
2019-03-15T23:36:04.955Z,22.40
2019-03-15T23:38:35.607Z,22.40
2019-03-15T23:41:06.193Z,22.40
2019-03-15T23:43:36.742Z,22.40
2019-03-15T23:46:07.194Z,22.40
2019-03-15T23:48:37.730Z,22.40
2019-03-15T23:51:08.223Z,22.40
2019-03-15T23:53:38.856Z,22.40
2019-03-15T23:56:09.400Z,22.40
2019-03-15T23:58:39.947Z,22.40
